createdAt,value
2023-01-07T00:01:22.230Z,24.95
2023-01-07T00:03:49.936Z,24.95
2023-01-07T00:06:18.598Z,24.93
2023-01-07T00:08:48.380Z,24.94
2023-01-07T00:11:17.680Z,24.94
2023-01-07T00:13:45.102Z,24.93
2023-01-07T00:16:14.398Z,24.94
2023-01-07T00:18:42.219Z,24.94
2023-01-07T00:21:10.749Z,24.92
2023-01-07T00:23:39.834Z,24.92
2023-01-07T00:26:09.586Z,24.92
2023-01-07T00:28:39.512Z,24.91
2023-01-07T00:31:08.622Z,24.91
2023-01-07T00:33:35.881Z,24.89
2023-01-07T00:36:04.591Z,24.89
2023-01-07T00:38:31.515Z,24.90
2023-01-07T00:40:58.436Z,24.90
2023-01-07T00:43:26.948Z,24.88
2023-01-07T00:45:53.981Z,24.88
2023-01-07T00:48:21.595Z,24.87
2023-01-07T00:50:49.180Z,24.87
2023-01-07T00:53:16.361Z,24.87
2023-01-07T00:55:43.628Z,24.86
2023-01-07T00:58:15.470Z,24.86
2023-01-07T01:00:44.189Z,24.86
2023-01-07T01:03:11.952Z,24.86
2023-01-07T01:05:39.382Z,24.85
2023-01-07T01:08:06.583Z,24.84
2023-01-07T01:10:33.516Z,24.84
2023-01-07T01:13:01.280Z,24.84
2023-01-07T01:15:28.463Z,24.85
2023-01-07T01:17:56.766Z,24.84
2023-01-07T01:20:23.647Z,24.83
2023-01-07T01:22:50.468Z,24.82
2023-01-07T01:25:17.712Z,24.80
2023-01-07T01:27:44.600Z,24.83
2023-01-07T01:30:12.093Z,24.82
2023-01-07T01:32:40.189Z,24.82
2023-01-07T01:35:09.264Z,24.81
2023-01-07T01:37:36.285Z,24.82
2023-01-07T01:40:04.145Z,24.80
2023-01-07T01:42:31.802Z,24.78
2023-01-07T01:45:01.024Z,24.79
2023-01-07T01:47:38.774Z,24.80
2023-01-07T01:50:13.578Z,24.78
2023-01-07T01:52:45.744Z,24.79
2023-01-07T01:55:18.126Z,24.78
2023-01-07T01:57:51.513Z,24.78
2023-01-07T02:00:19.377Z,24.79
2023-01-07T02:02:54.631Z,24.78
2023-01-07T02:05:25.141Z,24.78
2023-01-07T02:07:52.038Z,24.79
2023-01-07T02:10:22.702Z,24.78
2023-01-07T02:13:04.689Z,24.77
2023-01-07T02:15:43.983Z,24.76
2023-01-07T02:18:26.888Z,24.76
2023-01-07T02:21:03.858Z,24.75
2023-01-07T02:24:07.271Z,24.75
2023-01-07T02:27:15.394Z,24.74
2023-01-07T02:30:15.501Z,24.72
2023-01-07T02:32:57.320Z,24.70
2023-01-07T02:35:38.947Z,24.70
2023-01-07T02:38:12.302Z,24.71
2023-01-07T02:40:48.526Z,24.69
2023-01-07T02:43:22.082Z,24.69
2023-01-07T02:45:56.890Z,24.71
2023-01-07T02:48:26.461Z,24.70
2023-01-07T02:50:53.303Z,24.69
2023-01-07T02:53:21.065Z,24.71
2023-01-07T02:56:01.411Z,24.71
2023-01-07T02:58:38.619Z,24.70
2023-01-07T03:01:31.855Z,24.69
2023-01-07T03:04:15.768Z,24.67
2023-01-07T03:06:59.414Z,24.67
2023-01-07T03:09:33.855Z,24.65
2023-01-07T03:12:08.703Z,24.67
2023-01-07T03:14:41.165Z,24.69
2023-01-07T03:17:12.486Z,24.68
2023-01-07T03:19:45.112Z,24.67
2023-01-07T03:22:14.823Z,24.68
2023-01-07T03:24:43.547Z,24.67
2023-01-07T03:27:10.533Z,24.68
2023-01-07T03:29:37.508Z,24.69
2023-01-07T03:32:12.541Z,24.68
2023-01-07T03:34:42.613Z,24.68
2023-01-07T03:37:13.058Z,24.68
2023-01-07T03:39:42.333Z,24.69
2023-01-07T03:42:29.231Z,24.69
2023-01-07T03:44:57.852Z,24.65
2023-01-07T03:47:28.431Z,24.65
2023-01-07T03:49:57.203Z,24.65
2023-01-07T03:52:24.109Z,24.66
2023-01-07T03:54:51.663Z,24.67
2023-01-07T03:57:18.551Z,24.65
2023-01-07T03:59:45.761Z,24.67
2023-01-07T04:02:12.812Z,24.67
2023-01-07T04:04:40.255Z,24.66
2023-01-07T04:07:08.898Z,24.65
2023-01-07T04:09:35.770Z,24.67
2023-01-07T04:12:02.662Z,24.68
2023-01-07T04:14:29.647Z,24.62
2023-01-07T04:16:56.516Z,24.67
2023-01-07T04:19:23.560Z,24.66
2023-01-07T04:21:50.409Z,24.66
2023-01-07T04:24:18.739Z,24.66
2023-01-07T04:26:45.876Z,24.66
2023-01-07T04:29:12.852Z,24.65
2023-01-07T04:31:39.713Z,24.65
2023-01-07T04:34:06.655Z,24.65
2023-01-07T04:36:33.545Z,24.65
2023-01-07T04:39:01.479Z,24.64
2023-01-07T04:41:29.903Z,24.63
2023-01-07T04:43:57.220Z,24.64
2023-01-07T04:46:25.308Z,24.66
2023-01-07T04:48:52.594Z,24.64
2023-01-07T04:51:20.423Z,24.63
2023-01-07T04:53:47.659Z,24.63
2023-01-07T04:56:14.881Z,24.63
2023-01-07T04:58:43.955Z,24.62
2023-01-07T05:01:11.622Z,24.62
2023-01-07T05:03:39.328Z,24.63
2023-01-07T05:06:06.833Z,24.61
2023-01-07T05:08:33.954Z,24.62
2023-01-07T05:11:02.156Z,24.62
2023-01-07T05:13:31.827Z,24.62
2023-01-07T05:16:02.000Z,24.61
2023-01-07T05:18:30.253Z,24.61
2023-01-07T05:20:58.490Z,24.61
2023-01-07T05:23:25.472Z,24.61
2023-01-07T05:25:53.352Z,24.61
2023-01-07T05:28:20.410Z,24.61
2023-01-07T05:30:47.753Z,24.60
2023-01-07T05:33:16.061Z,24.61
2023-01-07T05:35:43.178Z,24.60
2023-01-07T05:38:10.039Z,24.60
2023-01-07T05:40:36.909Z,24.61
2023-01-07T05:43:03.795Z,24.60
2023-01-07T05:45:30.880Z,24.60
2023-01-07T05:47:57.721Z,24.59
2023-01-07T05:50:25.983Z,24.58
2023-01-07T05:52:52.849Z,24.59
2023-01-07T05:55:19.719Z,24.59
2023-01-07T05:57:46.623Z,24.59
2023-01-07T06:00:14.693Z,24.58
2023-01-07T06:02:41.603Z,24.58
2023-01-07T06:05:09.581Z,24.59
2023-01-07T06:07:37.873Z,24.58
2023-01-07T06:10:05.521Z,24.58
2023-01-07T06:12:34.060Z,24.58
2023-01-07T06:15:00.999Z,24.58
2023-01-07T06:17:28.013Z,24.57
2023-01-07T06:19:54.909Z,24.58
2023-01-07T06:22:21.759Z,24.57
2023-01-07T06:24:49.987Z,24.57
2023-01-07T06:27:16.994Z,24.57
2023-01-07T06:29:43.878Z,24.55
2023-01-07T06:32:10.714Z,24.57
2023-01-07T06:34:37.652Z,24.55
2023-01-07T06:37:04.493Z,24.56
2023-01-07T06:39:31.341Z,24.57
2023-01-07T06:41:59.574Z,24.56
2023-01-07T06:44:26.392Z,24.57
2023-01-07T06:46:53.262Z,24.57
2023-01-07T06:49:20.177Z,24.60
2023-01-07T06:51:47.029Z,24.63
2023-01-07T06:54:14.078Z,24.67
2023-01-07T06:56:40.960Z,24.71
2023-01-07T06:59:10.182Z,24.74
2023-01-07T07:01:37.256Z,24.77
2023-01-07T07:04:04.316Z,24.83
2023-01-07T07:06:31.215Z,24.87
2023-01-07T07:08:58.049Z,24.92
2023-01-07T07:11:25.027Z,24.96
2023-01-07T07:13:51.859Z,25.01
2023-01-07T07:16:22.530Z,25.06
2023-01-07T07:18:50.117Z,25.10
2023-01-07T07:21:16.944Z,25.16
2023-01-07T07:23:43.833Z,25.21
2023-01-07T07:26:10.706Z,25.25
2023-01-07T07:28:37.737Z,25.30
2023-01-07T07:31:04.827Z,25.34
2023-01-07T07:33:33.141Z,25.38
2023-01-07T07:36:00.130Z,25.41
2023-01-07T07:38:27.248Z,25.47
2023-01-07T07:40:54.223Z,25.50
2023-01-07T07:43:21.158Z,25.53
2023-01-07T07:45:48.071Z,25.56
2023-01-07T07:48:16.387Z,25.60
2023-01-07T07:50:44.650Z,25.63
2023-01-07T07:53:11.758Z,25.65
2023-01-07T07:55:39.629Z,25.68
2023-01-07T07:58:06.944Z,25.71
2023-01-07T08:00:33.871Z,25.72
2023-01-07T08:03:01.139Z,25.74
2023-01-07T08:05:28.907Z,25.76
2023-01-07T08:07:58.255Z,25.78
2023-01-07T08:10:27.218Z,25.80
2023-01-07T08:12:54.109Z,25.82
2023-01-07T08:15:21.027Z,25.83
2023-01-07T08:17:47.892Z,25.84
2023-01-07T08:20:14.818Z,25.86
2023-01-07T08:22:41.731Z,25.89
2023-01-07T08:25:10.559Z,25.92
2023-01-07T08:27:37.436Z,25.95
2023-01-07T08:30:05.024Z,25.95
2023-01-07T08:32:32.145Z,25.96
2023-01-07T08:34:59.100Z,25.98
2023-01-07T08:37:26.185Z,25.98
2023-01-07T08:39:53.040Z,25.98
2023-01-07T08:42:21.298Z,25.99
2023-01-07T08:44:48.459Z,26.00
2023-01-07T08:47:15.496Z,26.01
2023-01-07T08:49:42.444Z,26.02
2023-01-07T08:52:09.380Z,26.02
2023-01-07T08:54:36.355Z,26.04
2023-01-07T08:57:03.479Z,26.06
2023-01-07T08:59:32.967Z,26.07
2023-01-07T09:02:00.006Z,26.08
2023-01-07T09:04:27.020Z,26.09
2023-01-07T09:06:54.034Z,26.09
2023-01-07T09:09:22.130Z,26.10
2023-01-07T09:11:49.198Z,26.11
2023-01-07T09:14:15.997Z,26.10
2023-01-07T09:16:44.405Z,26.10
2023-01-07T09:19:11.520Z,26.09
2023-01-07T09:21:39.564Z,26.09
2023-01-07T09:24:06.850Z,26.10
2023-01-07T09:26:33.949Z,26.10
2023-01-07T09:29:00.845Z,26.10
2023-01-07T09:31:27.754Z,26.10
2023-01-07T09:33:56.584Z,26.10
2023-01-07T09:36:23.425Z,26.10
2023-01-07T09:38:50.751Z,26.09
2023-01-07T09:41:28.492Z,26.09
2023-01-07T09:44:01.974Z,26.08
2023-01-07T09:46:32.567Z,26.08
2023-01-07T09:49:03.760Z,26.07
2023-01-07T09:51:35.088Z,26.07
2023-01-07T09:54:02.929Z,26.07
2023-01-07T09:56:31.500Z,26.04
2023-01-07T09:59:00.108Z,26.04
2023-01-07T10:01:35.495Z,26.04
2023-01-07T10:04:19.041Z,26.04
2023-01-07T10:06:53.991Z,26.05
2023-01-07T10:09:33.084Z,26.05
2023-01-07T10:12:13.483Z,26.05
2023-01-07T10:15:22.852Z,26.06
2023-01-07T10:18:16.598Z,26.05
2023-01-07T10:20:50.181Z,26.04
2023-01-07T10:23:24.055Z,26.04
2023-01-07T10:25:54.659Z,26.04
2023-01-07T10:28:25.398Z,26.04
2023-01-07T10:30:52.464Z,26.04
2023-01-07T10:33:27.094Z,26.04
2023-01-07T10:36:04.348Z,26.03
2023-01-07T10:38:35.322Z,26.03
2023-01-07T10:41:07.475Z,26.03
2023-01-07T10:43:57.028Z,26.03
2023-01-07T10:46:38.702Z,26.01
2023-01-07T10:49:20.097Z,26.02
2023-01-07T10:52:02.277Z,26.02
2023-01-07T10:55:07.453Z,25.99
2023-01-07T10:57:34.647Z,25.98
2023-01-07T11:00:04.787Z,25.97
2023-01-07T11:02:32.171Z,25.98
2023-01-07T11:05:00.069Z,25.99
2023-01-07T11:07:40.352Z,25.99
2023-01-07T11:10:12.663Z,26.00
2023-01-07T11:12:43.044Z,25.99
2023-01-07T11:15:18.531Z,26.01
2023-01-07T11:17:49.672Z,26.00
2023-01-07T11:20:43.113Z,26.01
2023-01-07T11:23:27.496Z,26.00
2023-01-07T11:26:04.416Z,25.99
2023-01-07T11:28:32.923Z,26.00
2023-01-07T11:31:01.212Z,26.00
2023-01-07T11:34:01.474Z,26.01
2023-01-07T11:36:39.170Z,26.01
2023-01-07T11:39:12.361Z,25.99
2023-01-07T11:41:52.122Z,26.00
2023-01-07T11:44:19.350Z,26.00
2023-01-07T11:46:46.304Z,26.00
2023-01-07T11:49:23.800Z,26.00
2023-01-07T11:51:51.334Z,26.00
2023-01-07T11:54:23.167Z,26.00
2023-01-07T11:56:50.113Z,26.00
2023-01-07T11:59:27.754Z,26.00
2023-01-07T12:01:56.563Z,26.00
2023-01-07T12:04:25.663Z,25.99
2023-01-07T12:06:55.094Z,26.00
2023-01-07T12:09:28.126Z,26.00
2023-01-07T12:11:57.891Z,26.00
2023-01-07T12:14:28.655Z,25.99
2023-01-07T12:17:06.155Z,25.99
2023-01-07T12:19:54.231Z,25.99
2023-01-07T12:22:33.340Z,25.99
2023-01-07T12:25:21.513Z,25.99
2023-01-07T12:28:02.060Z,25.98
2023-01-07T12:30:42.578Z,25.97
2023-01-07T12:33:25.021Z,25.97
2023-01-07T12:35:53.228Z,25.97
2023-01-07T12:38:25.980Z,25.97
2023-01-07T12:40:58.894Z,25.95
2023-01-07T12:43:30.808Z,25.96
2023-01-07T12:46:01.132Z,25.96
2023-01-07T12:48:36.498Z,25.95
2023-01-07T12:51:10.671Z,25.95
2023-01-07T12:53:44.326Z,25.95
2023-01-07T12:56:18.082Z,25.96
2023-01-07T12:58:50.814Z,25.94
2023-01-07T13:01:26.192Z,25.94
2023-01-07T13:04:07.023Z,25.95
2023-01-07T13:06:45.088Z,25.95
2023-01-07T13:09:24.761Z,25.95
2023-01-07T13:12:40.674Z,25.94
2023-01-07T13:15:13.182Z,25.94
2023-01-07T13:17:40.969Z,25.93
2023-01-07T13:20:12.514Z,25.94
2023-01-07T13:22:43.846Z,25.94
2023-01-07T13:25:22.811Z,25.93
2023-01-07T13:28:31.481Z,25.94
2023-01-07T13:31:21.698Z,25.93
2023-01-07T13:33:53.774Z,25.91
2023-01-07T13:36:30.584Z,25.91
2023-01-07T13:39:20.361Z,25.91
2023-01-07T13:42:01.967Z,25.90
2023-01-07T13:44:55.616Z,25.90
2023-01-07T13:47:25.706Z,25.90
2023-01-07T13:49:57.787Z,25.90
2023-01-07T13:52:28.160Z,25.90
2023-01-07T13:54:57.624Z,25.90
2023-01-07T13:57:43.496Z,25.91
2023-01-07T14:00:40.990Z,25.90
2023-01-07T14:03:40.695Z,25.88
2023-01-07T14:06:42.057Z,25.87
2023-01-07T14:09:18.712Z,25.85
2023-01-07T14:12:12.976Z,25.86
2023-01-07T14:14:49.747Z,25.87
2023-01-07T14:17:29.381Z,25.86
2023-01-07T14:20:04.867Z,25.87
2023-01-07T14:22:40.588Z,25.87
2023-01-07T14:25:34.286Z,25.87
2023-01-07T14:28:24.086Z,25.87
2023-01-07T14:30:52.557Z,25.86
2023-01-07T14:33:23.197Z,25.86
2023-01-07T14:35:56.033Z,25.87
2023-01-07T14:39:05.845Z,25.87
2023-01-07T14:41:32.993Z,25.84
2023-01-07T14:44:16.324Z,25.85
2023-01-07T14:46:46.012Z,25.85
2023-01-07T14:49:47.367Z,25.84
2023-01-07T14:52:49.262Z,25.84
2023-01-07T14:55:51.940Z,25.83
2023-01-07T14:58:33.061Z,25.82
2023-01-07T15:01:25.618Z,25.83
2023-01-07T15:04:18.559Z,25.82
2023-01-07T15:06:47.888Z,25.82
2023-01-07T15:09:38.726Z,25.83
2023-01-07T15:12:32.082Z,25.82
2023-01-07T15:15:23.499Z,25.82
2023-01-07T15:17:50.874Z,25.81
2023-01-07T15:20:18.006Z,25.81
2023-01-07T15:23:01.201Z,25.81
2023-01-07T15:25:38.113Z,25.82
2023-01-07T15:28:12.495Z,25.81
2023-01-07T15:30:47.965Z,25.83
2023-01-07T15:33:39.290Z,25.84
2023-01-07T15:36:11.065Z,25.83
2023-01-07T15:38:44.449Z,25.83
2023-01-07T15:41:25.722Z,25.82
2023-01-07T15:43:53.334Z,25.83
2023-01-07T15:46:23.018Z,25.83
2023-01-07T15:49:16.369Z,25.83
2023-01-07T15:51:45.363Z,25.82
2023-01-07T15:54:29.297Z,25.81
2023-01-07T15:57:01.201Z,25.80
2023-01-07T15:59:31.122Z,25.82
2023-01-07T16:02:02.781Z,25.81
2023-01-07T16:04:32.136Z,25.80
2023-01-07T16:07:01.057Z,25.82
2023-01-07T16:09:29.704Z,25.82
2023-01-07T16:11:56.642Z,25.82
2023-01-07T16:14:25.204Z,25.82
2023-01-07T16:17:05.476Z,25.84
2023-01-07T16:19:32.534Z,25.82
2023-01-07T16:22:01.020Z,25.83
2023-01-07T16:24:29.389Z,25.82
2023-01-07T16:26:59.302Z,25.81
2023-01-07T16:29:28.838Z,25.81
2023-01-07T16:31:56.985Z,25.81
2023-01-07T16:34:53.120Z,25.82
2023-01-07T16:37:23.060Z,25.80
2023-01-07T16:39:53.243Z,25.80
2023-01-07T16:42:23.500Z,25.80
2023-01-07T16:45:03.022Z,25.80
2023-01-07T16:47:31.737Z,25.80
2023-01-07T16:50:20.065Z,25.79
2023-01-07T16:52:51.431Z,25.79
2023-01-07T16:55:32.927Z,25.80
2023-01-07T16:58:02.315Z,25.78
2023-01-07T17:00:29.440Z,25.78
2023-01-07T17:02:59.738Z,25.77
2023-01-07T17:05:29.400Z,25.78
2023-01-07T17:07:58.293Z,25.79
2023-01-07T17:10:27.892Z,25.79
2023-01-07T17:12:57.761Z,25.78
2023-01-07T17:15:39.574Z,25.79
2023-01-07T17:18:26.789Z,25.78
2023-01-07T17:20:55.901Z,25.76
2023-01-07T17:23:33.325Z,25.77
2023-01-07T17:26:03.320Z,25.77
2023-01-07T17:28:33.051Z,25.78
2023-01-07T17:31:01.989Z,25.77
2023-01-07T17:33:29.293Z,25.79
2023-01-07T17:35:57.597Z,25.79
2023-01-07T17:38:24.708Z,25.78
2023-01-07T17:40:52.273Z,25.79
2023-01-07T17:43:34.052Z,25.78
2023-01-07T17:46:03.823Z,25.79
2023-01-07T17:48:31.031Z,25.78
2023-01-07T17:50:58.413Z,25.78
2023-01-07T17:53:28.482Z,25.80
2023-01-07T17:55:55.629Z,25.79
2023-01-07T17:58:28.100Z,25.79
2023-01-07T18:00:58.365Z,25.79
2023-01-07T18:03:27.215Z,25.80
2023-01-07T18:05:57.929Z,25.81
2023-01-07T18:08:25.089Z,25.80
2023-01-07T18:11:11.252Z,25.81
2023-01-07T18:13:38.858Z,25.80
2023-01-07T18:18:48.857Z,25.82
2023-01-07T18:21:15.782Z,25.81
2023-01-07T18:23:42.893Z,25.82
2023-01-07T18:26:10.361Z,25.82
2023-01-07T18:28:37.376Z,25.83
2023-01-07T18:31:04.667Z,25.84
2023-01-07T18:33:31.735Z,25.85
2023-01-07T18:36:00.267Z,25.84
2023-01-07T18:38:27.454Z,25.85
2023-01-07T18:40:55.671Z,25.84
2023-01-07T18:43:22.682Z,25.83
2023-01-07T18:45:49.803Z,25.85
2023-01-07T18:48:18.323Z,25.85
2023-01-07T18:50:47.067Z,25.86
2023-01-07T18:53:16.372Z,25.85
2023-01-07T18:55:44.499Z,25.85
2023-01-07T18:58:13.460Z,25.85
2023-01-07T19:00:40.912Z,25.87
2023-01-07T19:03:07.855Z,25.86
2023-01-07T19:05:34.776Z,25.86
2023-01-07T19:08:01.600Z,25.87
2023-01-07T19:10:31.561Z,25.87
2023-01-07T19:12:58.556Z,25.87
2023-01-07T19:15:25.448Z,25.86
2023-01-07T19:17:53.116Z,25.87
2023-01-07T19:20:20.233Z,25.87
2023-01-07T19:22:47.101Z,25.87
2023-01-07T19:25:14.085Z,25.87
2023-01-07T19:27:42.466Z,25.88
2023-01-07T19:30:10.958Z,25.88
2023-01-07T19:32:38.083Z,25.88
2023-01-07T19:35:05.784Z,25.88
2023-01-07T19:37:32.722Z,25.88
2023-01-07T19:39:59.566Z,25.89
2023-01-07T19:42:26.619Z,25.89
2023-01-07T19:44:55.026Z,25.88
2023-01-07T19:47:21.973Z,25.88
2023-01-07T19:49:48.844Z,25.89
2023-01-07T19:52:15.876Z,25.88
2023-01-07T19:54:42.719Z,25.90
2023-01-07T19:57:09.611Z,25.89
2023-01-07T19:59:36.733Z,25.90
2023-01-07T20:02:05.071Z,25.90
2023-01-07T20:04:32.249Z,25.90
2023-01-07T20:06:59.155Z,25.91
2023-01-07T20:09:26.062Z,25.91
2023-01-07T20:11:53.076Z,25.90
2023-01-07T20:14:20.062Z,25.90
2023-01-07T20:16:47.089Z,25.91
2023-01-07T20:19:15.302Z,25.90
2023-01-07T20:21:42.344Z,25.90
2023-01-07T20:24:09.216Z,25.90
2023-01-07T20:26:38.317Z,25.89
2023-01-07T20:29:05.207Z,25.89
2023-01-07T20:31:32.139Z,25.90
2023-01-07T20:33:59.443Z,25.90
2023-01-07T20:36:29.596Z,25.90
2023-01-07T20:38:56.676Z,25.90
2023-01-07T20:41:25.695Z,25.90
2023-01-07T20:43:54.052Z,25.88
2023-01-07T20:46:22.101Z,25.87
2023-01-07T20:48:49.748Z,25.86
2023-01-07T20:51:17.416Z,25.86
2023-01-07T20:53:47.023Z,25.83
2023-01-07T20:56:16.326Z,25.83
2023-01-07T20:58:43.276Z,25.82
2023-01-07T21:01:12.872Z,25.80
2023-01-07T21:03:40.622Z,25.80
2023-01-07T21:06:09.922Z,25.78
2023-01-07T21:08:38.125Z,25.76
2023-01-07T21:11:11.642Z,25.75
2023-01-07T21:13:39.013Z,25.71
2023-01-07T21:16:06.639Z,25.70
2023-01-07T21:18:34.252Z,25.67
2023-01-07T21:21:03.172Z,25.67
2023-01-07T21:23:30.285Z,25.64
2023-01-07T21:25:57.373Z,25.63
2023-01-07T21:28:27.150Z,25.60
2023-01-07T21:30:54.174Z,25.60
2023-01-07T21:33:21.241Z,25.59
2023-01-07T21:35:48.281Z,25.57
2023-01-07T21:38:15.105Z,25.55
2023-01-07T21:40:42.809Z,25.53
2023-01-07T21:43:09.653Z,25.52
2023-01-07T21:45:38.063Z,25.50
2023-01-07T21:48:05.197Z,25.49
2023-01-07T21:50:32.083Z,25.48
2023-01-07T21:52:58.949Z,25.47
2023-01-07T21:55:25.843Z,25.46
2023-01-07T21:57:53.128Z,25.44
2023-01-07T22:00:20.052Z,25.43
2023-01-07T22:02:48.278Z,25.43
2023-01-07T22:05:15.322Z,25.40
2023-01-07T22:07:42.190Z,25.39
2023-01-07T22:10:09.825Z,25.38
2023-01-07T22:12:36.673Z,25.38
2023-01-07T22:15:04.267Z,25.36
2023-01-07T22:17:31.197Z,25.35
2023-01-07T22:19:59.418Z,25.35
2023-01-07T22:22:26.325Z,25.33
2023-01-07T22:24:53.269Z,25.33
2023-01-07T22:27:20.118Z,25.31
2023-01-07T22:29:46.982Z,25.30
2023-01-07T22:32:14.020Z,25.30
2023-01-07T22:34:40.973Z,25.30
2023-01-07T22:37:12.469Z,25.28
2023-01-07T22:39:41.622Z,25.28
2023-01-07T22:42:12.372Z,25.28
2023-01-07T22:44:44.400Z,25.28
2023-01-07T22:47:17.396Z,25.26
2023-01-07T22:49:45.148Z,25.25
2023-01-07T22:52:13.568Z,25.24
2023-01-07T22:54:40.517Z,25.24
2023-01-07T22:57:10.472Z,25.23
2023-01-07T22:59:37.931Z,25.22
2023-01-07T23:02:05.135Z,25.21
2023-01-07T23:04:32.370Z,25.21
2023-01-07T23:06:59.207Z,25.21
2023-01-07T23:09:27.575Z,25.20
2023-01-07T23:11:59.376Z,25.20
2023-01-07T23:14:29.325Z,25.19
2023-01-07T23:16:56.586Z,25.19
2023-01-07T23:19:23.550Z,25.18
2023-01-07T23:21:52.614Z,25.18
2023-01-07T23:24:20.112Z,25.17
2023-01-07T23:26:49.629Z,25.17
2023-01-07T23:29:17.073Z,25.16
2023-01-07T23:31:44.098Z,25.16
2023-01-07T23:34:11.266Z,25.15
2023-01-07T23:36:39.015Z,25.14
2023-01-07T23:39:06.675Z,25.13
2023-01-07T23:41:33.877Z,25.13
2023-01-07T23:44:02.266Z,25.15
2023-01-07T23:46:29.210Z,25.13
2023-01-07T23:48:56.068Z,25.13
2023-01-07T23:51:23.005Z,25.11
2023-01-07T23:53:50.165Z,25.10
2023-01-07T23:56:18.657Z,25.11
2023-01-07T23:58:45.703Z,25.10
